createdAt,value
2023-01-26T00:01:18.865Z,95446.34
2023-01-26T00:03:45.978Z,95434.03
2023-01-26T00:06:15.867Z,95462.00
2023-01-26T00:08:44.507Z,95462.38
2023-01-26T00:11:13.514Z,95439.84
2023-01-26T00:13:40.179Z,95453.22
2023-01-26T00:16:14.737Z,95455.88
2023-01-26T00:18:42.672Z,95462.06
2023-01-26T00:21:13.302Z,95472.00
2023-01-26T00:23:40.033Z,95460.88
2023-01-26T00:26:07.847Z,95456.25
2023-01-26T00:28:34.447Z,95437.56
2023-01-26T00:31:10.507Z,95452.47
2023-01-26T00:33:37.084Z,95417.19
2023-01-26T00:36:03.824Z,95428.00
2023-01-26T00:38:30.490Z,95418.78
2023-01-26T00:40:57.361Z,95433.03
2023-01-26T00:43:24.131Z,95419.97
2023-01-26T00:45:50.708Z,95408.09
2023-01-26T00:48:17.520Z,95429.53
2023-01-26T00:50:44.295Z,95415.34
2023-01-26T00:53:11.382Z,95424.56
2023-01-26T00:55:38.454Z,95426.81
2023-01-26T00:58:06.989Z,95421.09
2023-01-26T01:00:35.603Z,95427.22
2023-01-26T01:03:02.739Z,95388.16
2023-01-26T01:05:31.045Z,95403.13
2023-01-26T01:07:57.976Z,95400.41
2023-01-26T01:10:27.163Z,95401.16
2023-01-26T01:12:53.908Z,95394.25
2023-01-26T01:15:20.532Z,95400.00
2023-01-26T01:17:47.099Z,95373.94
2023-01-26T01:20:14.180Z,95410.00
2023-01-26T01:22:41.016Z,95395.47
2023-01-26T01:25:07.966Z,95396.91
2023-01-26T01:27:34.671Z,95399.28
2023-01-26T01:30:01.818Z,95366.31
2023-01-26T01:32:28.552Z,95384.34
2023-01-26T01:34:55.134Z,95391.28
2023-01-26T01:37:21.753Z,95379.44
2023-01-26T01:39:49.361Z,95387.47
2023-01-26T01:42:16.080Z,95393.56
2023-01-26T01:44:43.522Z,95387.09
2023-01-26T01:47:23.330Z,95365.25
2023-01-26T01:49:53.116Z,95387.44
2023-01-26T01:52:26.398Z,95388.25
2023-01-26T01:54:58.366Z,95394.72
2023-01-26T01:57:44.782Z,95361.06
2023-01-26T02:00:21.116Z,95383.97
2023-01-26T02:03:13.792Z,95387.06
2023-01-26T02:05:58.392Z,95384.72
2023-01-26T02:08:31.335Z,95359.06
2023-01-26T02:11:03.972Z,95364.09
2023-01-26T02:13:32.297Z,95364.50
2023-01-26T02:16:00.450Z,95353.41
2023-01-26T02:18:28.442Z,95312.06
2023-01-26T02:21:04.030Z,95332.03
2023-01-26T02:23:42.907Z,95340.06
2023-01-26T02:26:19.860Z,95339.63
2023-01-26T02:28:47.441Z,95330.13
2023-01-26T02:31:14.604Z,95314.81
2023-01-26T02:33:42.621Z,95318.25
2023-01-26T02:36:19.049Z,95290.63
2023-01-26T02:38:55.790Z,95299.09
2023-01-26T02:41:40.976Z,95312.13
2023-01-26T02:44:10.616Z,95319.00
2023-01-26T02:46:37.233Z,95278.84
2023-01-26T02:49:22.444Z,95298.03
2023-01-26T02:51:49.079Z,95304.50
2023-01-26T02:54:35.700Z,95302.59
2023-01-26T02:57:02.298Z,95288.41
2023-01-26T02:59:28.921Z,95297.28
2023-01-26T03:01:57.647Z,95286.16
2023-01-26T03:04:24.521Z,95289.63
2023-01-26T03:06:51.120Z,95275.81
2023-01-26T03:09:17.838Z,95280.84
2023-01-26T03:11:44.509Z,95292.28
2023-01-26T03:14:12.716Z,95277.38
2023-01-26T03:16:39.939Z,95282.75
2023-01-26T03:19:10.276Z,95271.28
2023-01-26T03:21:55.535Z,95267.81
2023-01-26T03:24:40.636Z,95260.22
2023-01-26T03:27:28.358Z,95212.72
2023-01-26T03:29:58.134Z,95256.00
2023-01-26T03:32:25.755Z,95238.00
2023-01-26T03:34:53.066Z,95268.66
2023-01-26T03:37:22.712Z,95262.53
2023-01-26T03:40:09.695Z,95257.59
2023-01-26T03:42:55.880Z,95246.88
2023-01-26T03:45:41.699Z,95264.03
2023-01-26T03:48:29.302Z,95264.06
2023-01-26T03:51:14.948Z,95229.66
2023-01-26T03:54:01.688Z,95221.66
2023-01-26T03:56:32.506Z,95236.50
2023-01-26T03:59:08.747Z,95205.47
2023-01-26T04:01:40.468Z,95225.06
2023-01-26T04:04:27.018Z,95241.19
2023-01-26T04:07:12.172Z,95245.38
2023-01-26T04:09:41.594Z,95233.16
2023-01-26T04:12:10.394Z,95232.34
2023-01-26T04:14:55.593Z,95224.38
2023-01-26T04:17:41.251Z,95212.94
2023-01-26T04:20:26.807Z,95211.41
2023-01-26T04:22:53.436Z,95154.81
2023-01-26T04:25:21.994Z,95170.84
2023-01-26T04:27:48.928Z,95193.47
2023-01-26T04:30:17.407Z,95169.38
2023-01-26T04:32:46.313Z,95186.59
2023-01-26T04:35:13.772Z,95201.13
2023-01-26T04:37:40.542Z,95171.31
2023-01-26T04:40:08.014Z,95202.66
2023-01-26T04:42:35.164Z,95171.69
2023-01-26T04:45:01.786Z,95176.63
2023-01-26T04:47:29.448Z,95197.31
2023-01-26T04:49:56.288Z,95196.94
2023-01-26T04:52:22.990Z,95189.28
2023-01-26T04:54:49.757Z,95175.84
2023-01-26T04:57:16.410Z,95175.47
2023-01-26T04:59:43.075Z,95185.06
2023-01-26T05:02:09.790Z,95182.38
2023-01-26T05:04:36.628Z,95182.00
2023-01-26T05:07:03.254Z,95186.63
2023-01-26T05:09:29.856Z,95183.56
2023-01-26T05:12:16.415Z,95199.59
2023-01-26T05:14:43.047Z,95199.25
2023-01-26T05:17:09.688Z,95192.75
2023-01-26T05:19:36.427Z,95178.22
2023-01-26T05:22:02.979Z,95196.16
2023-01-26T05:24:29.589Z,95190.09
2023-01-26T05:27:16.177Z,95198.09
2023-01-26T05:29:42.811Z,95172.84
2023-01-26T05:32:09.564Z,95169.03
2023-01-26T05:34:36.164Z,95196.59
2023-01-26T05:37:02.751Z,95186.28
2023-01-26T05:39:29.592Z,95185.13
2023-01-26T05:41:56.953Z,95186.66
2023-01-26T05:44:25.012Z,95184.00
2023-01-26T05:46:52.607Z,95179.41
2023-01-26T05:49:19.242Z,95188.59
2023-01-26T05:51:45.973Z,95175.19
2023-01-26T05:54:12.679Z,95177.50
2023-01-26T05:56:39.332Z,95203.13
2023-01-26T05:59:05.979Z,95201.97
2023-01-26T06:01:32.579Z,95167.56
2023-01-26T06:03:59.215Z,95188.94
2023-01-26T06:06:25.957Z,95197.38
2023-01-26T06:08:52.538Z,95182.09
2023-01-26T06:11:19.404Z,95182.88
2023-01-26T06:13:46.100Z,95166.44
2023-01-26T06:16:12.719Z,95164.91
2023-01-26T06:18:39.312Z,95169.16
2023-01-26T06:21:06.028Z,95160.34
2023-01-26T06:23:32.707Z,95152.28
2023-01-26T06:26:00.610Z,95172.97
2023-01-26T06:28:28.351Z,95169.13
2023-01-26T06:31:06.480Z,95159.19
2023-01-26T06:33:35.056Z,95147.75
2023-01-26T06:36:06.717Z,95157.31
2023-01-26T06:38:33.407Z,95158.84
2023-01-26T06:41:04.940Z,95147.34
2023-01-26T06:43:33.031Z,95160.00
2023-01-26T06:45:59.923Z,95141.63
2023-01-26T06:48:28.170Z,95133.63
2023-01-26T06:51:04.748Z,95145.50
2023-01-26T06:53:37.271Z,95163.47
2023-01-26T06:56:04.276Z,95160.03
2023-01-26T06:58:30.909Z,95155.44
2023-01-26T07:00:57.964Z,95114.16
2023-01-26T07:03:24.676Z,95129.84
2023-01-26T07:05:51.459Z,95150.88
2023-01-26T07:08:18.183Z,95102.66
2023-01-26T07:10:44.794Z,95147.03
2023-01-26T07:13:11.470Z,95079.78
2023-01-26T07:15:38.169Z,95150.47
2023-01-26T07:18:04.898Z,95065.97
2023-01-26T07:20:31.657Z,95141.69
2023-01-26T07:23:00.839Z,95127.91
2023-01-26T07:25:27.776Z,95124.09
2023-01-26T07:27:58.516Z,95098.88
2023-01-26T07:30:26.202Z,95132.16
2023-01-26T07:32:52.950Z,95111.13
2023-01-26T07:35:19.542Z,95057.25
2023-01-26T07:37:48.935Z,95128.34
2023-01-26T07:40:15.908Z,95072.91
2023-01-26T07:42:42.637Z,95140.56
2023-01-26T07:45:09.475Z,95047.28
2023-01-26T07:47:36.168Z,95128.31
2023-01-26T07:50:02.821Z,95121.06
2023-01-26T07:52:29.583Z,95120.66
2023-01-26T07:54:56.213Z,95096.22
2023-01-26T07:57:22.854Z,95099.66
2023-01-26T07:59:49.608Z,95134.44
2023-01-26T08:02:16.338Z,95095.44
2023-01-26T08:04:42.945Z,95131.38
2023-01-26T08:07:09.663Z,95111.13
2023-01-26T08:09:36.634Z,95090.88
2023-01-26T08:12:03.296Z,95068.31
2023-01-26T08:14:41.807Z,95106.91
2023-01-26T08:17:12.738Z,95086.63
2023-01-26T08:19:39.371Z,95076.69
2023-01-26T08:22:06.156Z,95098.09
2023-01-26T08:24:32.747Z,95097.31
2023-01-26T08:27:07.389Z,95084.69
2023-01-26T08:29:34.050Z,95083.16
2023-01-26T08:32:00.906Z,95094.66
2023-01-26T08:34:27.781Z,95062.94
2023-01-26T08:36:54.406Z,95008.69
2023-01-26T08:39:21.191Z,95065.97
2023-01-26T08:41:47.817Z,95080.84
2023-01-26T08:44:14.602Z,95057.16
2023-01-26T08:46:44.174Z,95042.59
2023-01-26T08:49:10.867Z,95092.66
2023-01-26T08:51:37.440Z,95082.72
2023-01-26T08:54:11.045Z,95089.59
2023-01-26T08:56:37.708Z,95086.94
2023-01-26T08:59:04.359Z,95095.69
2023-01-26T09:01:31.186Z,95095.66
2023-01-26T09:03:58.454Z,95074.97
2023-01-26T09:06:25.404Z,95084.56
2023-01-26T09:08:52.019Z,95065.84
2023-01-26T09:11:18.584Z,95099.41
2023-01-26T09:13:45.224Z,95090.97
2023-01-26T09:16:20.475Z,95069.19
2023-01-26T09:18:50.925Z,95079.47
2023-01-26T09:21:18.175Z,95062.28
2023-01-26T09:23:44.837Z,95081.78
2023-01-26T09:26:12.020Z,95071.00
2023-01-26T09:28:39.310Z,95065.66
2023-01-26T09:31:08.046Z,95055.69
2023-01-26T09:33:35.352Z,95057.50
2023-01-26T09:36:06.977Z,95062.81
2023-01-26T09:38:33.935Z,95010.88
2023-01-26T09:41:13.205Z,95046.28
2023-01-26T09:43:56.955Z,95039.13
2023-01-26T09:46:41.563Z,95054.81
2023-01-26T09:49:43.275Z,95001.84
2023-01-26T09:52:13.768Z,95042.28
2023-01-26T09:54:46.143Z,95046.81
2023-01-26T09:57:18.934Z,95025.38
2023-01-26T10:00:11.505Z,95028.00
2023-01-26T10:02:47.389Z,95031.81
2023-01-26T10:05:21.868Z,95032.28
2023-01-26T10:07:48.827Z,95032.97
2023-01-26T10:10:26.765Z,95018.84
2023-01-26T10:12:54.061Z,95026.44
2023-01-26T10:15:39.317Z,95017.59
2023-01-26T10:18:12.045Z,95016.16
2023-01-26T10:20:47.772Z,94927.31
2023-01-26T10:23:16.838Z,94999.59
2023-01-26T10:25:46.866Z,94977.38
2023-01-26T10:28:26.110Z,94964.47
2023-01-26T10:30:53.112Z,94957.16
2023-01-26T10:33:32.918Z,94970.84
2023-01-26T10:36:00.777Z,94964.31
2023-01-26T10:38:32.956Z,94962.84
2023-01-26T10:41:05.821Z,94942.19
2023-01-26T10:43:41.413Z,94941.72
2023-01-26T10:46:42.547Z,94908.59
2023-01-26T10:49:09.110Z,94926.47
2023-01-26T10:51:41.493Z,94897.81
2023-01-26T10:54:23.206Z,94919.56
2023-01-26T10:56:56.086Z,94920.25
2023-01-26T10:59:35.205Z,94896.25
2023-01-26T11:02:01.766Z,94907.16
2023-01-26T11:04:29.738Z,94891.34
2023-01-26T11:06:56.607Z,94879.25
2023-01-26T11:09:28.827Z,94862.41
2023-01-26T11:11:58.561Z,94866.13
2023-01-26T11:14:25.239Z,94857.84
2023-01-26T11:16:58.843Z,94859.66
2023-01-26T11:19:49.895Z,94867.66
2023-01-26T11:22:30.848Z,94866.41
2023-01-26T11:25:16.128Z,94850.03
2023-01-26T11:28:11.011Z,94855.75
2023-01-26T11:30:45.793Z,94783.69
2023-01-26T11:33:24.436Z,94843.31
2023-01-26T11:36:18.816Z,94844.66
2023-01-26T11:39:02.402Z,94831.09
2023-01-26T11:41:41.830Z,94824.75
2023-01-26T11:44:36.171Z,94815.56
2023-01-26T11:47:24.146Z,94822.47
2023-01-26T11:49:59.886Z,94811.78
2023-01-26T11:52:48.198Z,94823.50
2023-01-26T11:55:31.220Z,94814.88
2023-01-26T11:58:16.324Z,94822.69
2023-01-26T12:00:59.203Z,94801.06
2023-01-26T12:03:46.642Z,94821.44
2023-01-26T12:06:40.229Z,94801.06
2023-01-26T12:09:20.709Z,94795.28
2023-01-26T12:11:59.365Z,94783.91
2023-01-26T12:14:35.061Z,94787.00
2023-01-26T12:17:23.499Z,94786.19
2023-01-26T12:20:04.798Z,94764.91
2023-01-26T12:22:38.763Z,94769.41
2023-01-26T12:25:32.494Z,94765.88
2023-01-26T12:28:11.355Z,94761.72
2023-01-26T12:30:59.417Z,94731.94
2023-01-26T12:33:26.243Z,94751.41
2023-01-26T12:35:58.752Z,94744.47
2023-01-26T12:38:51.320Z,94742.63
2023-01-26T12:41:36.639Z,94741.38
2023-01-26T12:44:30.988Z,94732.63
2023-01-26T12:47:11.054Z,94746.34
2023-01-26T12:49:49.888Z,94735.72
2023-01-26T12:52:30.140Z,94734.94
2023-01-26T12:55:15.278Z,94737.06
2023-01-26T12:57:50.374Z,94728.56
2023-01-26T13:00:23.906Z,94741.13
2023-01-26T13:02:55.917Z,94711.00
2023-01-26T13:05:29.404Z,94728.03
2023-01-26T13:07:56.300Z,94716.19
2023-01-26T13:10:25.795Z,94681.19
2023-01-26T13:12:55.111Z,94725.47
2023-01-26T13:15:24.937Z,94721.28
2023-01-26T13:17:58.898Z,94727.19
2023-01-26T13:20:47.768Z,94707.38
2023-01-26T13:23:40.793Z,94717.97
2023-01-26T13:26:31.672Z,94720.66
2023-01-26T13:29:28.484Z,94721.06
2023-01-26T13:31:57.387Z,94724.38
2023-01-26T13:34:32.586Z,94720.09
2023-01-26T13:37:16.273Z,94718.75
2023-01-26T13:39:47.185Z,94711.31
2023-01-26T13:42:24.173Z,94710.56
2023-01-26T13:45:08.346Z,94693.72
2023-01-26T13:47:44.262Z,94718.59
2023-01-26T13:50:33.652Z,94707.84
2023-01-26T13:53:00.955Z,94694.47
2023-01-26T13:55:31.228Z,94697.75
2023-01-26T13:58:30.275Z,94700.03
2023-01-26T14:01:07.331Z,94697.84
2023-01-26T14:03:34.095Z,94671.09
2023-01-26T14:06:04.995Z,94685.16
2023-01-26T14:08:33.420Z,94671.72
2023-01-26T14:11:02.618Z,94657.56
2023-01-26T14:13:35.970Z,94679.78
2023-01-26T14:16:07.817Z,94647.69
2023-01-26T14:18:34.584Z,94675.81
2023-01-26T14:21:06.089Z,94693.06
2023-01-26T14:23:37.379Z,94681.44
2023-01-26T14:26:21.195Z,94678.06
2023-01-26T14:28:48.017Z,94667.00
2023-01-26T14:31:26.077Z,94672.63
2023-01-26T14:33:57.432Z,94658.19
2023-01-26T14:36:29.719Z,94673.34
2023-01-26T14:38:56.902Z,94671.59
2023-01-26T14:41:34.272Z,94675.88
2023-01-26T14:44:06.081Z,94662.88
2023-01-26T14:47:01.609Z,94670.91
2023-01-26T14:49:43.344Z,94662.56
2023-01-26T14:52:33.980Z,94645.28
2023-01-26T14:55:07.433Z,94654.94
2023-01-26T14:57:34.709Z,94658.78
2023-01-26T15:00:05.936Z,94669.16
2023-01-26T15:02:38.129Z,94657.50
2023-01-26T15:05:12.946Z,94669.66
2023-01-26T15:07:46.110Z,94659.84
2023-01-26T15:10:35.653Z,94650.66
2023-01-26T15:13:11.372Z,94646.88
2023-01-26T15:15:43.915Z,94618.03
2023-01-26T15:18:13.144Z,94601.91
2023-01-26T15:21:05.676Z,94628.19
2023-01-26T15:23:33.285Z,94623.66
2023-01-26T15:26:08.773Z,94612.31
2023-01-26T15:28:37.352Z,94610.78
2023-01-26T15:31:04.549Z,94603.88
2023-01-26T15:33:49.738Z,94598.91
2023-01-26T15:36:27.084Z,94593.50
2023-01-26T15:39:12.274Z,94590.06
2023-01-26T15:41:39.399Z,94585.63
2023-01-26T15:44:10.193Z,94571.53
2023-01-26T15:46:36.847Z,94573.69
2023-01-26T15:49:03.451Z,94566.53
2023-01-26T15:51:30.036Z,94531.91
2023-01-26T15:53:56.765Z,94557.75
2023-01-26T15:56:23.398Z,94570.72
2023-01-26T15:58:49.971Z,94561.22
2023-01-26T16:01:22.104Z,94565.88
2023-01-26T16:03:52.070Z,94563.19
2023-01-26T16:06:26.600Z,94555.97
2023-01-26T16:08:54.884Z,94551.47
2023-01-26T16:11:24.849Z,94552.59
2023-01-26T16:14:02.801Z,94522.16
2023-01-26T16:16:30.358Z,94547.94
2023-01-26T16:18:57.208Z,94544.53
2023-01-26T16:21:29.603Z,94541.91
2023-01-26T16:23:56.351Z,94522.16
2023-01-26T16:26:23.012Z,94550.97
2023-01-26T16:28:49.652Z,94538.50
2023-01-26T16:31:22.437Z,94539.66
2023-01-26T16:33:49.572Z,94556.00
2023-01-26T16:36:17.947Z,94544.91
2023-01-26T16:38:45.501Z,94539.97
2023-01-26T16:41:34.192Z,94561.00
2023-01-26T16:44:03.066Z,94550.34
2023-01-26T16:46:30.623Z,94565.25
2023-01-26T16:48:57.382Z,94538.16
2023-01-26T16:51:30.805Z,94562.16
2023-01-26T16:53:57.924Z,94562.13
2023-01-26T16:56:25.351Z,94556.41
2023-01-26T16:58:52.499Z,94527.53
2023-01-26T17:01:30.572Z,94548.34
2023-01-26T17:03:57.250Z,94535.03
2023-01-26T17:06:24.014Z,94542.66
2023-01-26T17:08:50.950Z,94526.56
2023-01-26T17:11:22.110Z,94521.13
2023-01-26T17:13:49.516Z,94529.53
2023-01-26T17:16:19.367Z,94520.31
2023-01-26T17:18:47.592Z,94510.00
2023-01-26T17:21:19.895Z,94521.00
2023-01-26T17:23:50.013Z,94524.44
2023-01-26T17:26:17.624Z,94502.78
2023-01-26T17:28:45.561Z,94509.59
2023-01-26T17:31:17.853Z,94493.66
2023-01-26T17:33:46.088Z,94511.41
2023-01-26T17:36:14.204Z,94476.06
2023-01-26T17:38:41.096Z,94494.38
2023-01-26T17:41:07.860Z,94483.66
2023-01-26T17:43:34.892Z,94501.09
2023-01-26T17:46:03.487Z,94487.34
2023-01-26T17:48:30.245Z,94484.72
2023-01-26T17:50:57.147Z,94462.66
2023-01-26T17:53:24.492Z,94457.28
2023-01-26T17:55:54.535Z,94471.00
2023-01-26T17:58:21.303Z,94487.38
2023-01-26T18:00:48.021Z,94486.22
2023-01-26T18:03:16.487Z,94490.53
2023-01-26T18:05:53.999Z,94469.31
2023-01-26T18:08:21.090Z,94475.41
2023-01-26T18:10:48.040Z,94470.03
2023-01-26T18:13:15.198Z,94457.78
2023-01-26T18:15:44.541Z,94461.63
2023-01-26T18:18:11.892Z,94434.25
2023-01-26T18:20:38.556Z,94442.31
2023-01-26T18:23:05.162Z,94436.91
2023-01-26T18:25:34.286Z,94450.81
2023-01-26T18:28:01.042Z,94429.75
2023-01-26T18:30:27.742Z,94444.25
2023-01-26T18:32:54.384Z,94445.84
2023-01-26T18:35:21.018Z,94436.66
2023-01-26T18:37:47.790Z,94438.13
2023-01-26T18:40:15.523Z,94425.25
2023-01-26T18:42:42.579Z,94423.06
2023-01-26T18:45:09.971Z,94413.56
2023-01-26T18:47:36.858Z,94394.25
2023-01-26T18:50:03.838Z,94431.44
2023-01-26T18:52:31.151Z,94409.72
2023-01-26T18:54:57.799Z,94425.66
2023-01-26T18:57:24.381Z,94420.38
2023-01-26T18:59:50.972Z,94401.81
2023-01-26T19:02:18.204Z,94407.47
2023-01-26T19:04:44.916Z,94412.34
2023-01-26T19:07:12.484Z,94410.13
2023-01-26T19:09:39.312Z,94386.50
2023-01-26T19:12:06.637Z,94375.91
2023-01-26T19:14:33.294Z,94399.84
2023-01-26T19:17:00.073Z,94362.91
2023-01-26T19:19:27.230Z,94380.84
2023-01-26T19:21:54.022Z,94382.84
2023-01-26T19:24:21.138Z,94371.81
2023-01-26T19:26:47.822Z,94380.59
2023-01-26T19:29:14.792Z,94361.59
2023-01-26T19:31:41.517Z,94370.63
2023-01-26T19:34:13.267Z,94336.09
2023-01-26T19:36:41.126Z,94362.28
2023-01-26T19:39:08.026Z,94355.03
2023-01-26T19:41:35.316Z,94385.97
2023-01-26T19:44:01.997Z,94363.25
2023-01-26T19:46:28.670Z,94354.06
2023-01-26T19:48:55.357Z,94377.97
2023-01-26T19:51:24.455Z,94376.84
2023-01-26T19:53:55.023Z,94324.75
2023-01-26T19:56:24.419Z,94327.72
2023-01-26T19:58:53.165Z,94355.44
2023-01-26T20:01:21.435Z,94363.78
2023-01-26T20:03:53.581Z,94350.91
2023-01-26T20:06:22.002Z,94345.25
2023-01-26T20:08:48.961Z,94371.81
2023-01-26T20:11:16.290Z,94356.56
2023-01-26T20:13:43.045Z,94349.66
2023-01-26T20:16:11.705Z,94372.88
2023-01-26T20:18:38.607Z,94373.31
2023-01-26T20:21:07.241Z,94367.44
2023-01-26T20:23:35.142Z,94343.94
2023-01-26T20:26:04.269Z,94345.00
2023-01-26T20:28:31.014Z,94335.03
2023-01-26T20:31:07.666Z,94328.19
2023-01-26T20:33:34.548Z,94337.66
2023-01-26T20:36:04.677Z,94328.47
2023-01-26T20:38:31.932Z,94309.75
2023-01-26T20:40:58.552Z,94297.16
2023-01-26T20:43:25.181Z,94294.22
2023-01-26T20:45:52.057Z,94306.00
2023-01-26T20:48:18.706Z,94284.28
2023-01-26T20:50:45.560Z,94305.88
2023-01-26T20:53:12.175Z,94305.81
2023-01-26T20:55:38.906Z,94313.06
2023-01-26T20:58:06.762Z,94292.63
2023-01-26T21:00:33.771Z,94310.13
2023-01-26T21:03:00.513Z,94292.69
2023-01-26T21:05:27.215Z,94266.59
2023-01-26T21:07:53.851Z,94281.00
2023-01-26T21:10:20.476Z,94301.03
2023-01-26T21:12:47.281Z,94284.28
2023-01-26T21:15:13.969Z,94294.91
2023-01-26T21:17:40.733Z,94278.91
2023-01-26T21:20:08.560Z,94298.94
2023-01-26T21:22:35.170Z,94288.66
2023-01-26T21:25:02.289Z,94298.09
2023-01-26T21:27:28.959Z,94306.03
2023-01-26T21:29:55.637Z,94290.34
2023-01-26T21:32:22.190Z,94254.81
2023-01-26T21:34:48.876Z,94279.16
2023-01-26T21:37:15.540Z,94247.25
2023-01-26T21:39:42.140Z,94285.06
2023-01-26T21:42:08.825Z,94274.16
2023-01-26T21:44:58.164Z,94272.09
2023-01-26T21:47:24.764Z,94281.56
2023-01-26T21:49:52.695Z,94297.13
2023-01-26T21:52:37.774Z,94256.75
2023-01-26T21:55:04.693Z,94268.34
2023-01-26T21:57:49.746Z,94280.38
2023-01-26T22:00:16.864Z,94281.72
2023-01-26T22:02:46.573Z,94282.19
2023-01-26T22:05:13.216Z,94279.19
2023-01-26T22:07:39.835Z,94275.22
2023-01-26T22:10:06.634Z,94281.47
2023-01-26T22:12:33.292Z,94267.69
2023-01-26T22:14:59.924Z,94274.72
2023-01-26T22:17:26.535Z,94260.28
2023-01-26T22:19:53.635Z,94270.88
2023-01-26T22:22:20.286Z,94240.38
2023-01-26T22:24:46.955Z,94269.47
2023-01-26T22:27:13.629Z,94267.28
2023-01-26T22:29:40.215Z,94260.16
2023-01-26T22:32:06.945Z,94254.75
2023-01-26T22:34:33.766Z,94241.03
2023-01-26T22:37:00.490Z,94226.34
2023-01-26T22:39:27.054Z,94246.41
2023-01-26T22:41:53.737Z,94243.06
2023-01-26T22:44:20.423Z,94241.19
2023-01-26T22:46:47.015Z,94203.22
2023-01-26T22:49:13.823Z,94226.22
2023-01-26T22:51:41.248Z,94228.63
2023-01-26T22:54:07.919Z,94221.13
2023-01-26T22:56:34.731Z,94211.06
2023-01-26T22:59:01.781Z,94211.41
2023-01-26T23:01:31.199Z,94226.84
2023-01-26T23:03:59.201Z,94213.38
2023-01-26T23:06:26.501Z,94204.06
2023-01-26T23:08:53.424Z,94189.19
2023-01-26T23:11:26.490Z,94203.28
2023-01-26T23:13:54.815Z,94198.81
2023-01-26T23:16:23.565Z,94188.59
2023-01-26T23:18:52.031Z,94204.91
2023-01-26T23:21:20.215Z,94203.13
2023-01-26T23:23:46.899Z,94201.91
2023-01-26T23:26:14.034Z,94207.72
2023-01-26T23:28:42.396Z,94189.50
2023-01-26T23:31:10.553Z,94189.44
2023-01-26T23:33:38.427Z,94185.00
2023-01-26T23:36:06.328Z,94183.81
2023-01-26T23:38:32.971Z,94189.34
2023-01-26T23:41:00.619Z,94161.75
2023-01-26T23:43:27.783Z,94165.66
2023-01-26T23:45:56.577Z,94184.91
2023-01-26T23:48:24.806Z,94162.72
2023-01-26T23:50:58.702Z,94171.69
2023-01-26T23:53:25.866Z,94167.63
2023-01-26T23:55:52.822Z,94166.78
2023-01-26T23:58:19.861Z,94145.09
